Time;durP1;ratioP1;P1;durP2;ratioP2;P2;SDS_P1;SDS_P2;PMS_P1;PMS_P2;Temp;Humidity;BMP_temperature;BMP_pressure;BME280_temperature;BME280_humidity;BME280_pressure;Samples;Min_cycle;Max_cycle;Signal;HPM_P1;HPM_P2
2022/02/15 00:01:13;;;;;;;5.78;2.08;;;6.30;99.90;;;;;;4972167;28;20069;-70
2022/02/15 00:03:39;;;;;;;6.85;2.35;;;6.30;99.90;;;;;;4972628;28;20039;-70
2022/02/15 00:06:04;;;;;;;11.77;3.03;;;6.30;99.90;;;;;;4972620;28;20114;-71
2022/02/15 00:08:30;;;;;;;6.50;1.90;;;6.30;99.90;;;;;;4971709;28;20072;-68
2022/02/15 00:10:56;;;;;;;5.28;1.55;;;6.30;99.90;;;;;;4972164;28;20034;-70
2022/02/15 00:13:21;;;;;;;7.45;1.65;;;6.30;99.90;;;;;;4972782;28;20585;-70
2022/02/15 00:15:47;;;;;;;4.43;1.15;;;6.20;99.90;;;;;;4972696;28;20073;-72
2022/02/15 00:18:13;;;;;;;4.32;1.45;;;6.20;99.90;;;;;;4972296;28;20035;-71
2022/02/15 00:20:38;;;;;;;11.05;1.83;;;6.20;99.90;;;;;;4972173;28;20046;-70
2022/02/15 00:23:04;;;;;;;8.02;2.10;;;6.10;99.90;;;;;;4972635;28;20030;-70
2022/02/15 00:25:31;;;;;;;11.20;1.70;;;6.10;99.90;;;;;;4987390;28;20517;-70
2022/02/15 00:27:56;;;;;;;2.17;1.08;;;6.00;99.90;;;;;;4970509;28;20515;-71
2022/02/15 00:30:22;;;;;;;4.22;1.30;;;5.90;99.90;;;;;;4972299;28;20074;-71
2022/02/15 00:32:48;;;;;;;13.38;1.42;;;5.90;99.90;;;;;;4972151;28;20384;-70
2022/02/15 00:35:14;;;;;;;5.13;0.70;;;5.80;99.90;;;;;;4972127;28;20042;-70
2022/02/15 00:37:40;;;;;;;5.20;1.08;;;5.80;99.90;;;;;;4972044;28;20038;-70
2022/02/15 00:40:06;;;;;;;8.27;2.35;;;5.80;99.90;;;;;;4972052;28;20049;-70
2022/02/15 00:42:32;;;;;;;2.60;0.95;;;5.70;99.90;;;;;;4975572;28;20039;-70
2022/02/15 00:44:57;;;;;;;3.03;1.05;;;5.70;99.90;;;;;;4971800;28;20041;-70
2022/02/15 00:47:23;;;;;;;2.80;0.73;;;5.70;99.90;;;;;;4971771;28;20034;-72
2022/02/15 00:49:49;;;;;;;16.33;1.40;;;5.70;99.90;;;;;;4969881;28;20034;-70
2022/02/15 00:52:14;;;;;;;7.05;1.77;;;5.80;99.90;;;;;;4971963;28;20043;-70
2022/02/15 00:54:40;;;;;;;6.65;1.33;;;5.80;99.90;;;;;;4971365;28;20146;-71
2022/02/15 00:57:05;;;;;;;4.05;1.15;;;5.80;99.90;;;;;;4972306;28;20060;-71
2022/02/15 00:59:31;;;;;;;4.43;1.20;;;5.80;99.90;;;;;;4971850;28;20039;-71
2022/02/15 01:01:56;;;;;;;3.58;1.00;;;5.80;99.90;;;;;;4971225;28;20023;-70
2022/02/15 01:04:22;;;;;;;10.25;1.42;;;5.80;99.90;;;;;;4986626;28;20050;-71
2022/02/15 01:06:48;;;;;;;3.50;1.25;;;5.90;99.90;;;;;;4971445;28;20060;-70
2022/02/15 01:09:13;;;;;;;5.53;1.55;;;5.80;99.90;;;;;;4986816;28;20056;-70
2022/02/15 01:11:39;;;;;;;6.93;1.65;;;5.90;99.90;;;;;;4985730;28;20062;-70
2022/02/15 01:14:05;;;;;;;3.95;1.98;;;5.80;99.90;;;;;;4971450;28;20039;-70
2022/02/15 01:16:31;;;;;;;4.97;1.50;;;5.90;99.90;;;;;;4971524;28;20078;-68
2022/02/15 01:18:56;;;;;;;6.68;1.55;;;5.90;99.90;;;;;;4971711;28;20125;-71
2022/02/15 01:21:22;;;;;;;1.98;1.08;;;5.90;99.90;;;;;;4972712;28;20053;-70
2022/02/15 01:23:47;;;;;;;6.05;1.65;;;5.90;99.90;;;;;;4972360;28;20114;-72
2022/02/15 01:26:13;;;;;;;2.90;1.38;;;5.90;99.90;;;;;;4971894;28;20049;-70
2022/02/15 01:28:39;;;;;;;4.63;1.60;;;5.90;99.90;;;;;;4970844;28;20039;-70
2022/02/15 01:31:05;;;;;;;6.18;1.48;;;5.90;99.90;;;;;;4970692;28;20888;-70
2022/02/15 01:33:31;;;;;;;9.00;1.42;;;5.90;99.90;;;;;;4971144;28;20486;-70
2022/02/15 01:35:59;;;;;;;6.70;1.42;;;5.90;99.90;;;;;;4969341;28;20038;-71
2022/02/15 01:38:25;;;;;;;5.25;1.80;;;5.80;99.90;;;;;;4971277;28;20046;-71
2022/02/15 01:40:50;;;;;;;8.10;1.85;;;5.80;99.90;;;;;;4970795;28;20086;-70
2022/02/15 01:43:16;;;;;;;5.60;1.90;;;5.70;99.90;;;;;;4974264;28;20042;-70
2022/02/15 01:45:41;;;;;;;9.07;1.70;;;5.70;99.90;;;;;;4973731;28;20467;-70
2022/02/15 01:48:09;;;;;;;2.22;1.13;;;5.60;99.90;;;;;;4973176;28;20058;-71
2022/02/15 01:50:34;;;;;;;3.28;1.25;;;5.60;99.90;;;;;;4970792;28;20038;-70
2022/02/15 01:53:00;;;;;;;7.25;1.90;;;5.60;99.90;;;;;;4971935;28;20403;-70
2022/02/15 01:55:26;;;;;;;8.20;2.03;;;5.60;99.90;;;;;;4971049;28;20034;-70
2022/02/15 01:57:52;;;;;;;10.30;2.42;;;5.60;99.90;;;;;;4968846;28;20122;-71
2022/02/15 02:00:18;;;;;;;5.68;0.90;;;5.60;99.90;;;;;;4970647;28;20088;-68
2022/02/15 02:02:45;;;;;;;4.50;1.50;;;5.60;99.90;;;;;;4970210;28;20030;-70
2022/02/15 02:07:56;;;;;;;16.00;2.47;;;5.60;99.90;;;;;;4968853;28;20038;-70
2022/02/15 02:10:22;;;;;;;2.90;1.17;;;5.70;99.90;;;;;;4970040;28;20043;-70
2022/02/15 02:12:48;;;;;;;5.43;1.48;;;5.70;99.90;;;;;;4970602;28;20052;-70
2022/02/15 02:15:19;;;;;;;3.83;1.20;;;5.70;99.90;;;;;;4970417;28;20446;-70
2022/02/15 02:17:45;;;;;;;3.85;1.20;;;5.70;99.90;;;;;;4985155;28;20514;-69
2022/02/15 02:20:11;;;;;;;3.17;1.17;;;5.70;99.90;;;;;;4969234;28;20423;-70
2022/02/15 02:22:37;;;;;;;6.68;1.85;;;5.70;99.90;;;;;;4970108;28;20031;-71
2022/02/15 02:25:03;;;;;;;4.70;1.30;;;5.70;99.90;;;;;;4970605;28;20101;-70
2022/02/15 02:27:32;;;;;;;7.20;1.38;;;5.80;99.90;;;;;;4970597;28;20125;-70
2022/02/15 02:29:59;;;;;;;6.05;1.00;;;5.80;99.90;;;;;;4969860;28;20034;-70
2022/02/15 02:32:27;;;;;;;7.97;1.67;;;5.80;99.90;;;;;;4969000;28;20039;-71
2022/02/15 02:34:53;;;;;;;7.45;1.73;;;5.90;99.90;;;;;;4969662;28;20043;-71
2022/02/15 02:37:19;;;;;;;6.05;1.60;;;5.90;99.90;;;;;;4970248;28;20095;-71
2022/02/15 02:39:50;;;;;;;6.53;1.73;;;5.80;99.90;;;;;;4970076;28;20085;-71
2022/02/15 02:42:18;;;;;;;6.35;1.80;;;5.80;99.90;;;;;;4972933;28;20097;-71
2022/02/15 02:44:45;;;;;;;5.22;1.80;;;5.80;99.90;;;;;;4968949;28;20042;-70
2022/02/15 02:47:10;;;;;;;8.68;1.50;;;5.90;99.90;;;;;;4985296;28;20116;-71
2022/02/15 02:49:36;;;;;;;6.07;1.77;;;5.90;99.90;;;;;;4969765;28;20038;-71
2022/02/15 02:52:03;;;;;;;4.65;1.55;;;5.90;99.90;;;;;;4970003;28;20526;-71
2022/02/15 02:54:29;;;;;;;8.20;1.40;;;6.00;99.90;;;;;;4970549;28;20046;-71
2022/02/15 02:56:56;;;;;;;6.70;2.22;;;6.00;99.90;;;;;;4969884;28;20380;-71
2022/02/15 02:59:22;;;;;;;6.65;1.45;;;6.00;99.90;;;;;;4969052;28;20523;-72
2022/02/15 03:01:48;;;;;;;4.22;1.65;;;6.10;99.90;;;;;;4969458;28;20104;-72
2022/02/15 03:04:14;;;;;;;5.85;2.17;;;6.10;99.90;;;;;;4970182;28;20066;-71
2022/02/15 03:06:40;;;;;;;9.73;2.10;;;6.00;99.90;;;;;;4969558;28;20377;-72
2022/02/15 03:09:06;;;;;;;11.30;2.92;;;6.00;99.90;;;;;;4970458;28;20045;-71
2022/02/15 03:11:32;;;;;;;7.57;2.78;;;6.00;99.90;;;;;;4969468;28;20027;-71
2022/02/15 03:13:59;;;;;;;9.32;2.47;;;6.00;99.90;;;;;;4971404;28;20130;-72
2022/02/15 03:16:24;;;;;;;3.83;1.80;;;6.00;99.90;;;;;;4973256;28;20125;-71
2022/02/15 03:18:50;;;;;;;4.00;1.48;;;6.00;99.90;;;;;;4972216;28;20648;-71
2022/02/15 03:21:16;;;;;;;4.50;1.83;;;6.10;99.90;;;;;;4973479;28;20549;-71
2022/02/15 03:23:43;;;;;;;5.40;2.05;;;6.10;99.90;;;;;;4973076;28;20122;-71
2022/02/15 03:26:08;;;;;;;9.18;1.85;;;6.10;99.90;;;;;;4973346;28;20046;-71
2022/02/15 03:28:34;;;;;;;6.70;2.08;;;6.10;99.90;;;;;;4972085;28;20071;-70
2022/02/15 03:31:00;;;;;;;7.18;1.92;;;6.10;99.90;;;;;;4972712;28;20054;-72
2022/02/15 03:33:26;;;;;;;6.03;2.00;;;6.20;99.90;;;;;;4973416;28;20037;-70
2022/02/15 03:35:52;;;;;;;6.68;2.45;;;6.20;99.90;;;;;;4973012;28;20147;-70
2022/02/15 03:38:17;;;;;;;11.32;2.50;;;6.20;99.90;;;;;;4973401;28;20122;-70
2022/02/15 03:43:27;;;;;;;9.77;2.60;;;6.30;99.90;;;;;;4974740;28;20124;-71
2022/02/15 03:45:53;;;;;;;9.63;2.45;;;6.30;99.90;;;;;;4972820;28;20550;-71
2022/02/15 03:48:19;;;;;;;8.52;2.30;;;6.30;99.90;;;;;;4973201;28;20042;-72
2022/02/15 03:50:44;;;;;;;7.50;1.83;;;6.30;99.90;;;;;;4987439;28;20118;-71
2022/02/15 03:53:10;;;;;;;9.00;2.40;;;6.30;99.90;;;;;;4973257;28;20046;-71
2022/02/15 03:55:36;;;;;;;3.30;1.92;;;6.30;99.90;;;;;;4972725;28;20057;-71
2022/02/15 03:58:03;;;;;;;5.30;2.38;;;6.30;99.90;;;;;;4972860;28;20045;-70
2022/02/15 04:00:28;;;;;;;9.73;2.50;;;6.30;99.90;;;;;;4972958;28;20034;-71
2022/02/15 04:02:55;;;;;;;4.38;1.95;;;6.30;99.90;;;;;;4972615;28;20502;-72
2022/02/15 04:05:22;;;;;;;7.38;2.35;;;6.30;99.90;;;;;;4972983;28;20047;-71
2022/02/15 04:07:48;;;;;;;11.77;2.03;;;6.30;99.90;;;;;;4972420;28;20644;-72
2022/02/15 04:10:14;;;;;;;4.95;2.33;;;6.20;99.90;;;;;;4971209;28;20046;-71
2022/02/15 04:12:40;;;;;;;6.22;2.22;;;6.20;99.90;;;;;;4972353;28;20034;-71
2022/02/15 04:15:06;;;;;;;9.23;2.58;;;6.30;99.90;;;;;;4987608;28;20101;-71
2022/02/15 04:17:32;;;;;;;6.10;2.22;;;6.30;99.90;;;;;;4972702;28;20487;-70
2022/02/15 04:19:58;;;;;;;6.30;2.17;;;6.20;99.90;;;;;;4972034;28;20093;-71
2022/02/15 04:22:23;;;;;;;6.25;1.85;;;6.20;99.90;;;;;;4972738;28;20035;-71
2022/02/15 04:24:49;;;;;;;6.55;2.10;;;6.20;99.90;;;;;;4971806;28;20499;-71
2022/02/15 04:27:15;;;;;;;6.38;1.80;;;6.20;99.90;;;;;;4972320;28;20043;-71
2022/02/15 04:29:41;;;;;;;6.88;1.83;;;6.30;99.90;;;;;;4972316;28;20120;-70
2022/02/15 04:32:07;;;;;;;8.65;1.83;;;6.20;99.90;;;;;;4972087;28;20131;-70
2022/02/15 04:34:33;;;;;;;10.70;2.35;;;6.30;99.90;;;;;;4972561;28;20027;-70
2022/02/15 04:36:59;;;;;;;10.18;2.20;;;6.30;99.90;;;;;;4972115;28;20027;-70
2022/02/15 04:39:24;;;;;;;5.60;2.08;;;6.30;99.90;;;;;;4972187;28;20089;-71
2022/02/15 04:41:50;;;;;;;14.93;2.20;;;6.30;99.90;;;;;;4971521;28;20089;-70
2022/02/15 04:44:16;;;;;;;5.15;1.92;;;6.30;99.90;;;;;;4987385;28;20035;-70
2022/02/15 04:46:41;;;;;;;6.90;2.00;;;6.30;99.90;;;;;;4972015;28;20117;-71
2022/02/15 04:49:07;;;;;;;4.85;2.13;;;6.30;99.90;;;;;;4971990;28;20042;-72
2022/02/15 04:51:32;;;;;;;4.30;2.13;;;6.40;99.90;;;;;;4971929;28;20031;-71
2022/02/15 04:53:59;;;;;;;7.70;2.20;;;6.40;99.90;;;;;;4971608;28;20030;-70
2022/02/15 04:56:24;;;;;;;6.18;2.25;;;6.40;99.90;;;;;;4971949;28;20050;-70
2022/02/15 04:58:50;;;;;;;7.10;2.13;;;6.30;99.90;;;;;;4971385;28;20038;-71
2022/02/15 05:01:16;;;;;;;7.13;2.17;;;6.30;99.90;;;;;;4971931;28;20042;-71
2022/02/15 05:03:42;;;;;;;8.75;2.42;;;6.30;99.90;;;;;;4971317;28;20039;-70
2022/02/15 05:06:08;;;;;;;8.10;2.45;;;6.30;99.90;;;;;;4972154;28;20039;-70
2022/02/15 05:08:33;;;;;;;5.68;2.13;;;6.30;99.90;;;;;;4971620;28;20037;-71
2022/02/15 05:10:59;;;;;;;9.13;2.75;;;6.30;99.90;;;;;;4970932;28;20163;-70
2022/02/15 05:13:25;;;;;;;7.47;2.63;;;6.30;99.90;;;;;;4971934;28;20450;-70
2022/02/15 05:15:50;;;;;;;8.45;2.80;;;6.40;99.90;;;;;;4971223;28;20252;-70
2022/02/15 05:18:16;;;;;;;14.13;2.17;;;6.40;99.90;;;;;;4971349;28;20491;-70
2022/02/15 05:20:41;;;;;;;11.73;2.97;;;6.30;99.90;;;;;;4970969;28;20039;-70
2022/02/15 05:23:07;;;;;;;7.13;2.67;;;6.30;99.90;;;;;;4971517;28;20043;-72
2022/02/15 05:25:33;;;;;;;5.88;2.08;;;6.40;99.90;;;;;;4971719;28;20106;-70
2022/02/15 05:27:59;;;;;;;6.72;2.75;;;6.30;99.90;;;;;;4996195;23;20038;-67
2022/02/15 05:30:27;;;;;;;9.60;3.10;;;6.40;99.90;;;;;;5021365;28;20048;-66
2022/02/15 05:32:53;;;;;;;10.25;2.60;;;6.40;99.90;;;;;;5028857;28;20445;-66
2022/02/15 05:35:18;;;;;;;6.40;2.60;;;6.40;99.90;;;;;;5030082;28;20120;-66
2022/02/15 05:37:44;;;;;;;8.20;2.80;;;6.40;99.90;;;;;;5029806;28;20125;-67
2022/02/15 05:40:11;;;;;;;11.07;4.05;;;6.40;99.90;;;;;;5030041;28;20033;-67
2022/02/15 05:42:37;;;;;;;12.02;3.20;;;6.40;99.90;;;;;;5027146;28;20489;-65
2022/02/15 05:45:04;;;;;;;10.60;3.15;;;6.40;99.90;;;;;;5030647;28;20083;-65
2022/02/15 05:47:29;;;;;;;13.57;2.92;;;6.50;99.90;;;;;;5030490;28;20036;-64
2022/02/15 05:52:39;;;;;;;10.10;3.67;;;6.50;99.90;;;;;;5033736;28;20082;-67
2022/02/15 05:55:06;;;;;;;13.35;3.80;;;6.50;99.90;;;;;;5022940;28;20055;-67
2022/02/15 05:57:31;;;;;;;14.05;3.17;;;6.50;99.90;;;;;;5025004;28;20091;-68
2022/02/15 05:59:57;;;;;;;11.52;2.45;;;6.50;99.90;;;;;;5024026;28;20034;-65
2022/02/15 06:02:23;;;;;;;16.45;3.05;;;6.50;99.90;;;;;;5026974;28;20054;-68
2022/02/15 06:04:48;;;;;;;15.52;3.60;;;6.50;99.90;;;;;;5028205;28;20382;-67
2022/02/15 06:07:14;;;;;;;9.98;2.58;;;6.50;99.90;;;;;;5029121;28;20128;-66
2022/02/15 06:09:40;;;;;;;12.88;3.20;;;6.50;99.90;;;;;;5026199;28;20038;-65
2022/02/15 06:12:06;;;;;;;11.82;2.50;;;6.60;99.90;;;;;;5026141;28;20040;-64
2022/02/15 06:14:32;;;;;;;10.10;3.20;;;6.60;99.90;;;;;;5028695;28;20025;-65
2022/02/15 06:16:57;;;;;;;13.18;3.13;;;6.60;99.90;;;;;;5028302;28;20072;-64
2022/02/15 06:19:23;;;;;;;31.27;3.65;;;6.60;99.90;;;;;;5025501;28;20025;-65
2022/02/15 06:21:49;;;;;;;11.70;2.67;;;6.60;99.90;;;;;;5028120;28;20105;-64
2022/02/15 06:24:17;;;;;;;11.73;2.75;;;6.60;99.90;;;;;;5027166;28;20551;-68
2022/02/15 06:26:43;;;;;;;17.30;3.70;;;6.60;99.90;;;;;;5026108;28;20029;-65
2022/02/15 06:29:09;;;;;;;11.70;1.88;;;6.70;99.90;;;;;;5025851;28;20107;-65
2022/02/15 06:31:35;;;;;;;13.25;3.63;;;6.60;99.90;;;;;;5029000;28;20466;-65
2022/02/15 06:34:02;;;;;;;11.30;1.83;;;6.60;99.90;;;;;;5023222;28;20029;-66
2022/02/15 06:36:27;;;;;;;9.25;2.13;;;6.60;99.90;;;;;;5028302;28;20056;-64
2022/02/15 06:38:53;;;;;;;19.08;2.67;;;6.50;99.90;;;;;;5026080;28;20485;-64
2022/02/15 06:41:18;;;;;;;12.40;2.50;;;6.50;99.90;;;;;;5028536;28;20477;-65
2022/02/15 06:43:44;;;;;;;7.25;1.88;;;6.50;99.90;;;;;;5026393;28;20438;-64
2022/02/15 06:46:09;;;;;;;10.77;2.45;;;6.50;99.90;;;;;;5023742;28;20052;-64
2022/02/15 06:48:35;;;;;;;9.23;1.80;;;6.50;99.90;;;;;;5026871;28;20037;-67
2022/02/15 06:51:01;;;;;;;15.60;2.28;;;6.50;99.90;;;;;;5026277;28;20034;-66
2022/02/15 06:53:26;;;;;;;13.98;2.75;;;6.50;99.90;;;;;;5027243;28;20401;-64
2022/02/15 06:55:52;;;;;;;18.95;3.58;;;6.40;99.90;;;;;;5032607;28;20137;-65
2022/02/15 06:58:17;;;;;;;9.98;1.75;;;6.30;99.90;;;;;;5030785;28;20037;-64
2022/02/15 07:00:43;;;;;;;8.85;1.80;;;6.30;99.90;;;;;;5028860;28;20042;-68
2022/02/15 07:03:08;;;;;;;8.90;1.65;;;6.20;99.90;;;;;;5030300;28;20773;-65
2022/02/15 07:05:34;;;;;;;9.57;2.03;;;6.10;99.90;;;;;;5031432;28;20084;-64
2022/02/15 07:08:00;;;;;;;8.85;1.30;;;6.10;99.90;;;;;;5027407;28;20485;-68
2022/02/15 07:10:25;;;;;;;8.95;2.83;;;6.00;99.90;;;;;;5030014;28;20037;-66
2022/02/15 07:12:51;;;;;;;8.57;2.20;;;6.00;99.90;;;;;;5030574;28;20052;-65
2022/02/15 07:15:17;;;;;;;6.18;1.30;;;5.90;99.90;;;;;;5031836;28;20099;-65
2022/02/15 07:17:42;;;;;;;15.82;1.85;;;5.90;99.90;;;;;;5029658;28;20034;-65
2022/02/15 07:20:08;;;;;;;9.15;2.17;;;5.90;99.90;;;;;;5029258;28;20048;-66
2022/02/15 07:22:35;;;;;;;15.88;2.10;;;5.90;99.90;;;;;;5031007;28;20029;-65
2022/02/15 07:25:01;;;;;;;8.40;1.50;;;5.90;99.90;;;;;;5030668;28;20057;-68
2022/02/15 07:27:29;;;;;;;7.63;2.05;;;5.90;99.90;;;;;;5029084;28;20460;-68
2022/02/15 07:29:55;;;;;;;9.57;2.60;;;5.90;99.90;;;;;;5031555;28;20069;-67
2022/02/15 07:32:25;;;;;;;13.15;2.25;;;6.00;99.90;;;;;;5032054;28;20044;-68
2022/02/15 07:34:56;;;;;;;8.13;1.60;;;6.10;99.90;;;;;;5028835;28;20049;-65
2022/02/15 07:37:22;;;;;;;14.25;2.80;;;6.10;99.90;;;;;;5023984;28;20520;-66
2022/02/15 07:39:47;;;;;;;8.30;2.28;;;6.10;99.90;;;;;;5028440;28;20030;-68
2022/02/15 07:42:13;;;;;;;13.90;2.95;;;6.10;99.90;;;;;;5029503;28;20041;-68
2022/02/15 07:44:39;;;;;;;11.90;1.85;;;6.20;99.90;;;;;;5032318;28;20029;-66
2022/02/15 07:47:05;;;;;;;8.85;1.83;;;6.30;99.90;;;;;;5028751;28;20747;-65
2022/02/15 07:49:31;;;;;;;7.43;1.48;;;6.30;99.90;;;;;;5028915;28;20042;-68
2022/02/15 07:51:57;;;;;;;8.57;1.67;;;6.40;99.90;;;;;;5028866;28;20443;-65
2022/02/15 07:54:23;;;;;;;11.02;1.80;;;6.50;99.90;;;;;;5031221;28;20536;-68
2022/02/15 07:56:49;;;;;;;7.35;2.00;;;6.60;99.90;;;;;;5024803;28;20096;-65
2022/02/15 07:59:15;;;;;;;8.15;1.83;;;6.60;99.90;;;;;;5028034;28;20057;-67
2022/02/15 08:01:41;;;;;;;9.85;1.95;;;6.70;99.90;;;;;;5024227;28;20026;-68
2022/02/15 08:04:08;;;;;;;7.57;1.88;;;6.70;99.90;;;;;;5029558;28;20049;-65
2022/02/15 08:06:34;;;;;;;6.90;2.10;;;6.80;99.90;;;;;;5027611;28;20071;-64
2022/02/15 08:08:59;;;;;;;6.20;1.88;;;6.80;99.90;;;;;;5035450;28;20073;-67
2022/02/15 08:11:25;;;;;;;11.05;2.80;;;6.80;99.90;;;;;;5027571;28;20030;-68
2022/02/15 08:13:51;;;;;;;8.77;1.88;;;6.80;99.90;;;;;;5028956;28;20042;-65
2022/02/15 08:16:17;;;;;;;5.38;1.92;;;6.90;99.90;;;;;;5030849;28;20045;-65
2022/02/15 08:18:43;;;;;;;7.93;2.67;;;6.90;99.90;;;;;;5029414;28;20025;-65
2022/02/15 08:21:10;;;;;;;13.30;2.22;;;6.90;99.90;;;;;;5030698;28;20547;-65
2022/02/15 08:23:36;;;;;;;11.98;3.47;;;7.00;99.90;;;;;;5028058;28;20128;-71
2022/02/15 08:26:03;;;;;;;7.38;1.85;;;7.00;99.90;;;;;;5032071;28;20681;-69
2022/02/15 08:28:28;;;;;;;8.00;1.80;;;7.10;99.90;;;;;;5029525;28;20037;-66
2022/02/15 08:30:54;;;;;;;7.00;2.00;;;7.10;99.90;;;;;;5024750;28;20393;-65
2022/02/15 08:33:20;;;;;;;11.07;2.25;;;7.00;99.90;;;;;;5030820;28;20041;-66
2022/02/15 08:35:45;;;;;;;7.35;2.00;;;7.10;99.90;;;;;;5028231;28;20044;-65
2022/02/15 08:38:11;;;;;;;8.57;2.00;;;7.10;99.90;;;;;;5030799;28;20040;-66
2022/02/15 08:40:37;;;;;;;4.63;1.50;;;7.10;99.90;;;;;;5030571;28;20551;-65
2022/02/15 08:43:03;;;;;;;9.00;1.98;;;7.20;99.90;;;;;;5026668;28;20064;-69
2022/02/15 08:45:29;;;;;;;12.13;1.60;;;7.20;99.90;;;;;;5033657;28;20662;-65
2022/02/15 08:47:54;;;;;;;3.65;1.25;;;7.20;99.90;;;;;;5028249;28;20037;-67
2022/02/15 08:50:20;;;;;;;8.00;1.83;;;7.30;99.90;;;;;;5026324;28;20047;-68
2022/02/15 08:52:45;;;;;;;8.05;1.90;;;7.40;99.90;;;;;;5029049;28;20485;-65
2022/02/15 08:55:11;;;;;;;11.00;1.98;;;7.40;99.90;;;;;;5030162;28;20037;-65
2022/02/15 08:57:37;;;;;;;9.57;2.22;;;7.50;99.90;;;;;;5030241;28;20037;-65
2022/02/15 09:00:05;;;;;;;10.68;2.30;;;7.60;99.90;;;;;;5023922;28;20064;-69
2022/02/15 09:02:31;;;;;;;7.25;1.30;;;7.60;99.90;;;;;;5029931;28;20049;-67
2022/02/15 09:04:57;;;;;;;8.82;1.77;;;7.50;99.90;;;;;;5025723;28;20026;-73
2022/02/15 09:07:22;;;;;;;6.82;0.98;;;7.40;99.90;;;;;;5031390;28;20156;-65
2022/02/15 09:09:49;;;;;;;10.18;1.23;;;7.30;99.90;;;;;;5028110;28;20481;-66
2022/02/15 09:12:15;;;;;;;8.73;1.90;;;7.40;99.90;;;;;;5026690;28;20654;-65
2022/02/15 09:14:41;;;;;;;8.95;2.33;;;7.50;99.90;;;;;;5029502;28;20064;-67
2022/02/15 09:17:06;;;;;;;13.50;2.63;;;7.50;99.90;;;;;;5030030;28;20037;-65
2022/02/15 09:19:33;;;;;;;9.45;1.83;;;7.60;99.90;;;;;;5027697;28;20029;-68
2022/02/15 09:21:59;;;;;;;7.80;1.73;;;7.60;99.90;;;;;;5026988;28;20373;-67
2022/02/15 09:24:27;;;;;;;8.93;1.95;;;7.60;99.90;;;;;;5028969;28;20535;-65
2022/02/15 09:26:52;;;;;;;7.78;1.77;;;7.50;99.90;;;;;;5025132;28;20037;-67
2022/02/15 09:29:18;;;;;;;7.63;1.33;;;7.40;99.90;;;;;;5030462;28;20509;-68
2022/02/15 09:31:44;;;;;;;9.00;1.20;;;7.40;99.90;;;;;;5027323;28;20432;-65
2022/02/15 09:34:10;;;;;;;9.60;1.50;;;7.30;99.90;;;;;;5030281;28;20030;-66
2022/02/15 09:36:36;;;;;;;15.68;2.25;;;7.10;99.90;;;;;;5029373;28;20044;-66
2022/02/15 09:39:04;;;;;;;7.05;1.33;;;7.00;99.90;;;;;;5029228;28;20026;-66
2022/02/15 09:41:33;;;;;;;7.45;1.23;;;6.90;99.90;;;;;;5028729;28;20057;-65
2022/02/15 09:44:00;;;;;;;7.88;1.80;;;6.80;99.90;;;;;;5028421;28;20040;-66
2022/02/15 09:46:26;;;;;;;6.32;1.20;;;6.80;99.90;;;;;;5029775;28;20025;-67
2022/02/15 09:48:54;;;;;;;10.82;1.80;;;6.70;99.90;;;;;;5026855;28;20191;-66
2022/02/15 09:51:21;;;;;;;8.52;1.65;;;6.60;99.90;;;;;;5029129;28;20524;-67
2022/02/15 09:53:47;;;;;;;9.15;2.20;;;6.60;99.90;;;;;;5028504;28;20048;-65
2022/02/15 09:56:13;;;;;;;8.00;2.08;;;6.60;99.90;;;;;;5029103;28;20041;-65
2022/02/15 09:58:39;;;;;;;6.07;1.20;;;6.60;99.90;;;;;;5028826;28;20086;-67
2022/02/15 10:01:05;;;;;;;9.10;1.30;;;6.70;99.90;;;;;;5029697;28;20401;-66
2022/02/15 10:03:32;;;;;;;7.22;1.20;;;6.80;99.90;;;;;;5024537;28;20045;-66
2022/02/15 10:05:58;;;;;;;9.57;1.42;;;7.00;99.90;;;;;;5028868;28;20044;-65
2022/02/15 10:08:28;;;;;;;18.75;1.75;;;7.20;99.90;;;;;;5027320;28;20037;-65
2022/02/15 10:10:55;;;;;;;11.10;1.85;;;7.40;99.90;;;;;;5028807;28;20038;-67
2022/02/15 10:13:21;;;;;;;6.38;1.20;;;7.80;99.90;;;;;;5029403;28;20033;-65
2022/02/15 10:15:49;;;;;;;4.68;0.90;;;8.00;99.90;;;;;;5027066;28;20137;-69
2022/02/15 10:18:28;;;;;;;6.75;0.68;;;8.30;99.90;;;;;;5020686;28;20038;-69
2022/02/15 10:20:56;;;;;;;11.82;0.93;;;8.50;99.90;;;;;;5018537;28;20037;-68
2022/02/15 10:23:29;;;;;;;6.13;0.90;;;8.80;99.90;;;;;;5022290;28;20046;-67
2022/02/15 10:25:56;;;;;;;4.15;1.30;;;8.90;99.90;;;;;;5025497;28;20037;-69
2022/02/15 10:28:30;;;;;;;9.43;1.00;;;8.90;99.90;;;;;;5021139;28;20045;-69
2022/02/15 10:30:58;;;;;;;10.02;1.13;;;8.90;99.90;;;;;;5022006;28;20026;-70
2022/02/15 10:33:40;;;;;;;12.45;2.05;;;8.90;99.90;;;;;;5023843;28;20055;-66
2022/02/15 10:36:14;;;;;;;2.72;0.77;;;8.90;99.90;;;;;;5022599;28;20037;-69
2022/02/15 10:38:49;;;;;;;7.00;1.65;;;8.90;99.90;;;;;;5034358;28;20037;-68
2022/02/15 10:41:23;;;;;;;7.40;0.82;;;8.80;99.90;;;;;;5024375;28;20050;-69
2022/02/15 10:43:57;;;;;;;7.00;1.13;;;8.80;99.90;;;;;;5025149;28;20080;-65
2022/02/15 10:46:33;;;;;;;7.60;0.93;;;8.70;99.90;;;;;;5025327;28;20034;-69
2022/02/15 10:48:59;;;;;;;4.53;0.60;;;8.80;99.90;;;;;;5019532;28;20026;-69
2022/02/15 10:51:26;;;;;;;6.55;1.42;;;8.90;99.90;;;;;;5020689;28;20038;-67
2022/02/15 10:53:52;;;;;;;5.18;0.52;;;9.00;99.90;;;;;;5021749;28;20112;-68
2022/02/15 10:56:19;;;;;;;6.57;1.23;;;9.00;99.90;;;;;;5025005;28;20619;-67
2022/02/15 10:58:46;;;;;;;11.05;1.60;;;9.00;99.90;;;;;;5021326;28;20041;-69
2022/02/15 11:01:12;;;;;;;7.60;0.90;;;9.00;99.90;;;;;;5024380;28;20556;-67
2022/02/15 11:03:40;;;;;;;12.82;1.20;;;9.00;99.90;;;;;;5017951;28;20103;-73
2022/02/15 11:06:07;;;;;;;7.20;0.65;;;8.90;99.90;;;;;;5020546;28;20034;-69
2022/02/15 11:08:36;;;;;;;7.28;1.17;;;8.90;99.90;;;;;;5023197;28;20033;-68
2022/02/15 11:11:13;;;;;;;5.65;0.75;;;9.00;99.90;;;;;;5022813;28;20041;-67
2022/02/15 11:13:39;;;;;;;2.28;0.38;;;9.10;99.90;;;;;;5015913;28;20037;-71
2022/02/15 11:16:18;;;;;;;4.13;0.50;;;9.10;99.90;;;;;;5023206;28;20053;-69
2022/02/15 11:18:47;;;;;;;6.43;0.93;;;9.10;99.90;;;;;;5021085;28;20041;-69
2022/02/15 11:21:25;;;;;;;9.93;1.23;;;9.10;99.90;;;;;;5018422;28;20042;-68
2022/02/15 11:24:07;;;;;;;3.28;0.77;;;9.00;99.90;;;;;;5019298;28;20040;-68
2022/02/15 11:26:41;;;;;;;7.57;0.40;;;9.00;99.90;;;;;;5022880;28;20037;-67
2022/02/15 11:29:18;;;;;;;7.68;1.35;;;9.10;99.90;;;;;;5021172;28;20045;-68
2022/02/15 11:31:44;;;;;;;6.15;0.60;;;9.20;99.90;;;;;;5020001;28;20814;-66
2022/02/15 11:34:12;;;;;;;2.92;0.60;;;9.20;99.90;;;;;;5016182;28;20181;-66
2022/02/15 11:36:51;;;;;;;7.82;1.08;;;9.20;99.90;;;;;;5023912;28;20489;-69
2022/02/15 11:39:27;;;;;;;4.22;0.43;;;9.20;99.90;;;;;;5027570;28;20029;-67
2022/02/15 11:41:59;;;;;;;2.08;0.75;;;9.20;99.90;;;;;;5020401;28;20029;-68
2022/02/15 11:44:33;;;;;;;4.75;1.13;;;9.20;99.90;;;;;;5025261;28;20048;-66
2022/02/15 11:47:14;;;;;;;6.85;0.70;;;9.20;99.90;;;;;;5025025;28;20030;-67
2022/02/15 11:50:10;;;;;;;3.88;0.68;;;9.30;99.90;;;;;;5025360;28;20046;-66
2022/02/15 11:52:36;;;;;;;8.55;1.67;;;9.30;99.90;;;;;;5011591;28;20029;-68
2022/02/15 11:55:17;;;;;;;2.55;0.60;;;9.40;99.90;;;;;;5026965;28;20060;-68
2022/02/15 11:57:45;;;;;;;6.18;0.77;;;9.50;99.90;;;;;;5027032;28;20033;-68
2022/02/15 12:00:11;;;;;;;4.38;1.02;;;9.60;99.90;;;;;;5025714;28;20501;-68
2022/02/15 12:02:37;;;;;;;3.58;1.08;;;9.50;99.90;;;;;;5025533;28;20065;-68
2022/02/15 12:05:05;;;;;;;3.67;1.13;;;9.60;99.90;;;;;;5022602;28;20060;-69
2022/02/15 12:07:31;;;;;;;5.07;0.63;;;9.50;99.90;;;;;;5026266;28;20030;-69
2022/02/15 12:10:00;;;;;;;2.75;1.15;;;9.50;99.90;;;;;;5021198;28;20490;-69
2022/02/15 12:12:30;;;;;;;4.57;0.82;;;9.50;99.90;;;;;;5026721;28;20034;-68
2022/02/15 12:14:56;;;;;;;4.32;0.80;;;9.50;99.90;;;;;;5026494;28;20033;-69
2022/02/15 12:17:24;;;;;;;4.70;0.60;;;9.60;99.90;;;;;;5024318;28;20479;-69
2022/02/15 12:19:57;;;;;;;5.55;0.82;;;9.60;99.90;;;;;;5021591;28;20033;-69
2022/02/15 12:22:24;;;;;;;3.05;0.40;;;9.70;99.90;;;;;;5026413;28;20137;-67
2022/02/15 12:24:57;;;;;;;4.25;0.65;;;9.70;99.90;;;;;;5026515;28;20516;-69
2022/02/15 12:27:24;;;;;;;2.17;0.80;;;9.80;99.90;;;;;;5021669;28;20037;-69
2022/02/15 12:29:55;;;;;;;4.80;1.20;;;9.70;99.90;;;;;;5022509;28;20033;-63
2022/02/15 12:32:23;;;;;;;4.60;0.60;;;9.70;99.90;;;;;;5024040;28;20038;-69
2022/02/15 12:34:50;;;;;;;4.60;0.52;;;9.80;99.90;;;;;;5023427;28;20021;-69
2022/02/15 12:37:24;;;;;;;7.07;0.65;;;9.80;99.90;;;;;;5023530;28;20059;-68
2022/02/15 12:39:55;;;;;;;2.28;0.93;;;9.70;99.90;;;;;;5024886;28;20930;-65
2022/02/15 12:42:23;;;;;;;8.45;0.60;;;9.70;99.90;;;;;;5025754;28;20037;-69
2022/02/15 12:45:01;;;;;;;3.65;0.63;;;9.90;99.90;;;;;;5026461;28;20025;-69
2022/02/15 12:47:28;;;;;;;7.97;1.20;;;9.90;99.90;;;;;;5022760;28;20052;-66
2022/02/15 12:49:55;;;;;;;6.13;0.75;;;10.00;99.90;;;;;;5024595;28;20033;-69
2022/02/15 12:52:22;;;;;;;10.25;0.73;;;10.00;99.90;;;;;;5026333;28;20068;-69
2022/02/15 12:54:56;;;;;;;6.93;1.35;;;10.00;99.90;;;;;;5020872;28;20031;-67
2022/02/15 12:57:23;;;;;;;7.93;0.70;;;10.10;99.90;;;;;;5025513;28;20041;-69
2022/02/15 12:59:56;;;;;;;8.50;0.90;;;10.10;99.90;;;;;;5027864;28;20030;-69
2022/02/15 13:02:23;;;;;;;4.97;0.50;;;10.10;99.90;;;;;;5022839;28;20105;-66